Time;durP1;ratioP1;P1;durP2;ratioP2;P2;SDS_P1;SDS_P2;PMS_P1;PMS_P2;Temp;Humidity;BMP_temperature;BMP_pressure;BME280_temperature;BME280_humidity;BME280_pressure;Samples;Min_cycle;Max_cycle;Signal;HPM_P1;HPM_P2
2023/01/29 00:01:52;;;;;;;27.15;11.13;;;;;;;-148.88;100.00;78554.84;5062458;28;20028;-78
2023/01/29 00:04:18;;;;;;;31.90;13.30;;;;;;;-148.88;99.23;78540.63;5057508;28;20021;-78
2023/01/29 00:06:43;;;;;;;26.10;10.60;;;;;;;-148.88;99.35;78536.56;5057846;28;20604;-79
2023/01/29 00:09:09;;;;;;;26.63;10.05;;;;;;;-148.88;99.27;78534.53;5058643;28;20434;-79
2023/01/29 00:11:35;;;;;;;26.85;10.20;;;;;;;-148.88;99.23;78532.50;5059272;28;20032;-79
2023/01/29 00:14:00;;;;;;;31.95;12.23;;;;;;;-148.88;98.76;78524.38;5057381;28;20028;-78
2023/01/29 00:16:26;;;;;;;31.60;11.63;;;;;;;-148.88;98.63;78522.34;5056439;28;20060;-78
2023/01/29 00:18:51;;;;;;;31.95;11.60;;;;;;;-148.88;97.99;78516.25;5057973;28;20025;-78
2023/01/29 00:21:18;;;;;;;28.30;11.30;;;;;;;-148.88;97.38;78493.88;5057629;28;20028;-78
2023/01/29 00:23:44;;;;;;;29.85;11.85;;;;;;;-148.88;97.91;78520.31;5057995;28;20029;-78
2023/01/29 00:26:10;;;;;;;33.70;12.13;;;;;;;-148.88;98.14;78520.31;5056364;28;20066;-79
2023/01/29 00:28:36;;;;;;;24.10;10.60;;;;;;;-148.88;97.15;78508.09;5057200;28;20513;-78
2023/01/29 00:31:08;;;;;;;28.10;11.25;;;;;;;-148.88;97.68;78516.25;5058517;28;20030;-79
2023/01/29 00:33:33;;;;;;;26.45;10.75;;;;;;;-148.88;97.91;78524.38;5058447;28;20020;-79
2023/01/29 00:36:04;;;;;;;23.77;9.35;;;;;;;-148.88;97.60;78522.34;5058510;28;20031;-79
2023/01/29 00:38:30;;;;;;;28.30;10.55;;;;;;;-148.88;97.10;78516.25;5056936;28;20028;-79
2023/01/29 00:46:23;;;;;;;23.90;9.65;;;;;;;-148.88;97.37;78514.22;5059299;28;19991;-79
2023/01/29 00:48:48;;;;;;;24.95;10.45;;;;;;;-148.88;97.49;78508.09;5057399;28;20035;-78
2023/01/29 00:51:13;;;;;;;26.83;10.30;;;;;;;-148.88;97.81;78512.19;5055240;28;20028;-78
2023/01/29 00:53:39;;;;;;;29.42;11.02;;;;;;;-148.88;98.67;78516.25;5056717;28;20029;-78
2023/01/29 00:56:04;;;;;;;27.10;11.32;;;;;;;-148.88;98.68;78516.25;5056579;28;20017;-81
2023/01/29 00:58:33;;;;;;;27.65;10.43;;;;;;;-148.88;98.11;78516.25;5055639;28;20223;-78
2023/01/29 01:01:00;;;;;;;30.48;11.07;;;;;;;-148.88;97.76;78499.97;5057077;28;20021;-78
2023/01/29 01:03:25;;;;;;;29.65;11.43;;;;;;;-148.88;98.33;78508.09;5056543;28;20091;-78
2023/01/29 01:06:05;;;;;;;24.95;10.32;;;;;;;-148.88;98.20;78499.97;5056109;28;20505;-78
2023/01/29 01:11:14;;;;;;;;;;;;;;;-148.88;98.61;78504.03;5058756;28;20437;-78
2023/01/29 01:13:39;;;;;;;26.70;10.25;;;;;;;-148.88;97.73;78489.81;5057081;28;20383;-79
2023/01/29 01:16:09;;;;;;;24.05;10.50;;;;;;;-148.88;97.75;78483.72;5059176;28;20043;-79
2023/01/29 01:18:35;;;;;;;24.15;9.88;;;;;;;-148.88;98.56;78477.63;5062414;28;20375;-79
2023/01/29 01:21:00;;;;;;;26.30;11.23;;;;;;;-148.88;98.22;78467.47;5062221;28;20017;-79
2023/01/29 01:23:26;;;;;;;29.17;10.75;;;;;;;-148.88;98.36;78467.47;5060317;28;20033;-78
2023/01/29 01:25:52;;;;;;;25.63;11.43;;;;;;;-148.88;98.77;78467.47;5061100;28;20025;-78
2023/01/29 01:28:17;;;;;;;25.20;10.82;;;;;;;-148.88;99.07;78463.38;5061163;28;20397;-79
2023/01/29 01:30:42;;;;;;;26.15;11.77;;;;;;;-148.88;98.85;78467.47;5059111;28;20111;-79
2023/01/29 01:33:07;;;;;;;29.25;11.23;;;;;;;-148.88;99.01;78459.31;5059297;28;20351;-78
2023/01/29 01:35:33;;;;;;;26.25;10.98;;;;;;;-148.88;98.63;78463.38;5061082;28;20052;-79
2023/01/29 01:37:58;;;;;;;31.10;11.43;;;;;;;-148.88;99.08;78467.47;5059672;28;20029;-79
2023/01/29 01:40:25;;;;;;;36.10;12.02;;;;;;;-148.88;98.65;78469.50;5071298;22;20064;-85
2023/01/29 01:42:53;;;;;;;30.50;11.80;;;;;;;-148.88;99.08;78483.72;5044671;28;20030;-83
2023/01/29 01:45:24;;;;;;;31.00;12.10;;;;;;;-148.88;98.43;78479.66;5045406;28;20021;-83
2023/01/29 01:48:11;;;;;;;32.08;11.70;;;;;;;-148.88;98.43;78479.66;5045127;28;20056;-82
2023/01/29 01:50:52;;;;;;;31.20;12.10;;;;;;;-148.88;98.40;78477.63;5036849;28;20022;-82
2023/01/29 01:53:40;;;;;;;27.95;12.20;;;;;;;-148.88;99.00;78475.59;5036775;28;20021;-82
2023/01/29 01:56:17;;;;;;;28.10;10.57;;;;;;;-148.88;99.43;78471.53;5092032;22;20473;-88
2023/01/29 01:58:52;;;;;;;26.48;10.27;;;;;;;-148.88;99.50;78491.84;5055474;28;20388;-88
2023/01/29 02:01:28;;;;;;;29.63;12.00;;;;;;;-148.88;99.53;78497.94;5056140;28;20025;-88
2023/01/29 02:09:45;;;;;;;33.05;12.10;;;;;;;-148.88;100.00;78489.81;5056787;28;20086;-90
2023/01/29 02:12:15;;;;;;;28.17;11.05;;;;;;;-148.88;100.00;78495.91;5058511;28;20450;-89
2023/01/29 02:14:44;;;;;;;31.20;12.93;;;;;;;-148.88;100.00;78497.94;5060384;28;20029;-89
2023/01/29 02:17:16;;;;;;;30.92;11.38;;;;;;;-148.88;99.90;78479.66;5060008;28;20399;-89
2023/01/29 02:20:13;;;;;;;32.38;12.65;;;;;;;-148.88;99.57;78485.75;5056124;28;20052;-91
2023/01/29 02:22:58;;;;;;;29.30;11.15;;;;;;;-148.88;99.50;78489.81;5055682;28;20091;-89
2023/01/29 02:26:00;;;;;;;27.25;10.80;;;;;;;-148.88;99.62;78489.81;5054983;28;20032;-89
2023/01/29 02:28:28;;;;;;;33.83;12.13;;;;;;;-148.88;99.49;78491.84;5056809;28;20044;-89
2023/01/29 02:31:24;;;;;;;30.20;12.07;;;;;;;-148.88;99.47;78481.69;5054649;28;20467;-90
2023/01/29 02:34:17;;;;;;;35.80;13.25;;;;;;;-148.88;99.69;78495.91;5055978;28;20024;-89
2023/01/29 02:36:49;;;;;;;36.55;12.30;;;;;;;-148.88;100.00;78499.97;5054766;28;20069;-89
2023/01/29 02:39:37;;;;;;;32.70;13.75;;;;;;;-148.88;100.00;78491.84;5055764;28;20029;-89
2023/01/29 02:42:31;;;;;;;30.80;13.20;;;;;;;-148.88;100.00;78497.94;5056190;28;20017;-89
2023/01/29 02:45:02;;;;;;;;;;;;;;;-148.88;99.92;78491.84;5052665;28;20035;-89
2023/01/29 02:47:58;;;;;;;36.13;13.30;;;;;;;-148.88;100.00;78491.84;5055114;28;19908;-88
2023/01/29 02:50:38;;;;;;;37.72;14.95;;;;;;;-148.88;99.69;78491.84;5054503;28;20041;-89
2023/01/29 02:53:31;;;;;;;39.70;14.60;;;;;;;-148.88;100.00;78487.78;5054429;28;20112;-90
2023/01/29 02:56:13;;;;;;;37.58;12.93;;;;;;;-148.88;99.85;78483.72;5054316;28;20104;-90
2023/01/29 02:58:43;;;;;;;35.90;13.85;;;;;;;-148.88;99.57;78491.84;5055481;28;20032;-89
2023/01/29 03:01:25;;;;;;;43.00;15.30;;;;;;;-148.88;100.00;78497.94;5054393;28;20044;-89
2023/01/29 03:04:02;;;;;;;39.22;15.40;;;;;;;-148.88;100.00;78491.84;5054230;28;20476;-89
2023/01/29 03:07:39;;;;;;;35.13;13.73;;;;;;;-148.88;100.00;78495.91;5054626;28;20029;-89
2023/01/29 03:10:08;;;;;;;46.08;16.27;;;;;;;-148.88;100.00;78487.78;5055306;28;20029;-87
2023/01/29 03:12:37;;;;;;;38.50;15.23;;;;;;;-148.88;100.00;78485.75;5054372;28;20033;-89
2023/01/29 03:15:10;;;;;;;42.95;16.23;;;;;;;-148.88;100.00;78506.06;5054894;28;20476;-87
2023/01/29 03:17:43;;;;;;;38.42;13.82;;;;;;;-148.88;100.00;78491.84;5055671;28;20029;-88
2023/01/29 03:20:16;;;;;;;41.90;16.13;;;;;;;-148.88;100.00;78487.78;5056012;28;20028;-88
2023/01/29 03:22:49;;;;;;;38.65;15.73;;;;;;;-148.88;100.00;78487.78;5056404;28;20479;-87
2023/01/29 03:34:18;;;;;;;38.72;15.48;;;;;;;-148.88;100.00;78473.56;5056504;28;20096;-87
2023/01/29 03:36:50;;;;;;;39.20;15.07;;;;;;;-148.88;100.00;78475.59;5054341;28;20033;-89
2023/01/29 03:39:16;;;;;;;41.83;15.85;;;;;;;-148.88;100.00;78467.47;5053986;28;20025;-89
2023/01/29 03:42:03;;;;;;;42.78;14.40;;;;;;;-148.88;100.00;78451.19;5053402;28;20021;-89
2023/01/29 03:44:51;;;;;;;42.75;15.63;;;;;;;-148.88;100.00;78459.31;5054058;28;20013;-89
2023/01/29 03:47:39;;;;;;;46.92;16.67;;;;;;;-148.88;100.00;78463.38;5055209;28;20025;-88
2023/01/29 03:50:28;;;;;;;38.88;15.85;;;;;;;-148.88;100.00;78443.06;5053515;28;20024;-87
2023/01/29 03:53:35;;;;;;;41.45;16.02;;;;;;;-148.88;100.00;78449.16;5014019;28;20041;-88
2023/01/29 03:56:19;;;;;;;37.50;15.15;;;;;;;-148.88;100.00;78447.13;5054511;28;20017;-88
2023/01/29 03:59:10;;;;;;;41.88;15.40;;;;;;;-148.88;100.00;78432.91;5054623;28;20103;-87
2023/01/29 04:01:47;;;;;;;44.40;15.07;;;;;;;-148.88;100.00;78428.84;5053202;28;20025;-88
2023/01/29 04:04:31;;;;;;;39.45;14.55;;;;;;;-148.88;100.00;78443.06;5055028;28;20025;-88
2023/01/29 04:07:23;;;;;;;44.08;15.93;;;;;;;-148.88;100.00;78432.91;5053169;28;20116;-88
2023/01/29 04:10:19;;;;;;;42.80;15.75;;;;;;;-148.88;100.00;78436.97;5054113;28;20115;-89
2023/01/29 04:12:51;;;;;;;44.63;15.68;;;;;;;-148.88;100.00;78426.81;5052924;28;20491;-90
2023/01/29 04:15:25;;;;;;;44.10;16.13;;;;;;;-148.88;100.00;78432.91;5052738;28;20021;-89
2023/01/29 04:17:54;;;;;;;37.85;13.95;;;;;;;-148.88;100.00;78410.53;5053762;28;20031;-89
2023/01/29 04:20:20;;;;;;;42.15;16.38;;;;;;;-148.88;100.00;78416.63;5053060;28;20120;-90
2023/01/29 04:22:53;;;;;;;44.35;16.02;;;;;;;-148.88;100.00;78402.41;5053744;28;20060;-88
2023/01/29 04:25:29;;;;;;;48.55;15.90;;;;;;;-148.88;100.00;78400.38;5053807;28;20132;-88
2023/01/29 04:28:15;;;;;;;46.92;18.08;;;;;;;-148.88;100.00;78408.50;5054215;28;20028;-87
2023/01/29 04:31:01;;;;;;;40.13;15.85;;;;;;;-148.88;100.00;78388.19;5054494;28;20537;-87
2023/01/29 04:34:13;;;;;;;40.20;16.30;;;;;;;-148.88;100.00;78396.31;5056012;28;20028;-86
2023/01/29 04:37:04;;;;;;;38.92;16.20;;;;;;;-148.88;100.00;78396.31;5054135;28;20506;-89
2023/01/29 04:39:55;;;;;;;40.47;17.30;;;;;;;-148.88;100.00;78398.34;5053947;28;20383;-87
2023/01/29 04:42:26;;;;;;;40.95;15.82;;;;;;;-148.88;100.00;78402.41;5052867;28;20483;-87
2023/01/29 04:45:03;;;;;;;45.25;16.08;;;;;;;-148.88;99.63;78388.19;5054401;28;20021;-87
2023/01/29 04:48:10;;;;;;;40.13;15.48;;;;;;;-148.88;99.57;78392.25;5053064;28;20029;-87
2023/01/29 04:50:54;;;;;;;43.97;16.65;;;;;;;-148.88;100.00;78400.38;5042205;28;20033;-87
2023/01/29 04:53:41;;;;;;;46.40;17.27;;;;;;;-148.88;100.00;78390.22;5054240;28;20056;-87
2023/01/29 04:56:20;;;;;;;45.65;17.13;;;;;;;-148.88;100.00;78414.59;5053223;28;20033;-85
2023/01/29 04:59:08;;;;;;;43.53;16.33;;;;;;;-148.88;100.00;78410.53;5054226;28;20053;-87
2023/01/29 05:02:00;;;;;;;42.25;15.20;;;;;;;-148.88;100.00;78414.59;5056585;28;20047;-88
2023/01/29 05:04:40;;;;;;;47.45;16.67;;;;;;;-148.88;100.00;78416.63;5062923;28;20036;-88
2023/01/29 05:07:17;;;;;;;42.22;16.70;;;;;;;-148.88;100.00;78416.63;5059766;28;20020;-87
2023/01/29 05:09:47;;;;;;;49.22;17.95;;;;;;;-148.88;100.00;78426.81;5056183;28;20029;-87
2023/01/29 05:12:27;;;;;;;46.03;17.92;;;;;;;-148.88;100.00;78426.81;5053422;28;20502;-87
2023/01/29 05:15:14;;;;;;;50.08;18.63;;;;;;;-148.88;100.00;78432.91;5053024;28;20170;-88
2023/01/29 05:17:52;;;;;;;48.03;19.63;;;;;;;-148.88;100.00;78436.97;5052788;28;20029;-88
2023/01/29 05:20:24;;;;;;;44.50;16.77;;;;;;;-148.88;100.00;78434.94;5053358;28;20083;-87
2023/01/29 05:22:49;;;;;;;52.13;17.40;;;;;;;-148.88;100.00;78434.94;5052977;28;20052;-88
2023/01/29 05:25:22;;;;;;;45.97;16.52;;;;;;;-148.88;100.00;78441.03;5054265;28;20039;-88
2023/01/29 05:30:36;;;;;;;48.85;18.08;;;;;;;-148.88;100.00;78443.06;5054189;28;20067;-88
2023/01/29 05:33:25;;;;;;;45.72;17.02;;;;;;;-148.88;100.00;78436.97;5052146;28;20057;-88
2023/01/29 05:35:58;;;;;;;49.13;18.10;;;;;;;-148.88;100.00;78441.03;5051857;28;20437;-87
2023/01/29 05:38:26;;;;;;;48.78;17.52;;;;;;;-148.88;100.00;78443.06;5052057;28;20017;-88
2023/01/29 05:40:51;;;;;;;43.70;16.10;;;;;;;-148.88;100.00;78418.69;5052681;28;20029;-87
2023/01/29 05:43:26;;;;;;;55.40;19.75;;;;;;;-148.88;100.00;78430.88;5051848;28;20035;-87
2023/01/29 05:46:06;;;;;;;46.40;18.20;;;;;;;-148.88;100.00;78439.00;5052879;28;20114;-87
2023/01/29 05:48:34;;;;;;;48.75;17.70;;;;;;;-148.88;100.00;78434.94;5052198;28;20017;-88
2023/01/29 05:51:10;;;;;;;46.42;17.58;;;;;;;-148.88;100.00;78432.91;5053148;28;20064;-88
2023/01/29 05:56:36;;;;;;;47.88;18.55;;;;;;;-148.88;100.00;78439.00;5039711;28;20044;-89
2023/01/29 05:59:07;;;;;;;47.67;18.23;;;;;;;-148.88;100.00;78451.19;5051924;28;20020;-87
2023/01/29 06:01:33;;;;;;;48.67;18.40;;;;;;;-148.88;100.00;78447.13;5052612;28;20155;-88
2023/01/29 06:04:06;;;;;;;48.65;18.25;;;;;;;-148.88;100.00;78443.06;5055814;28;20029;-88
2023/01/29 06:06:34;;;;;;;48.20;17.27;;;;;;;-148.88;100.00;78426.81;5055305;28;20415;-89
2023/01/29 06:09:10;;;;;;;42.13;15.65;;;;;;;-148.88;100.00;78436.97;5059161;28;20021;-88
2023/01/29 06:11:44;;;;;;;49.13;18.40;;;;;;;-148.88;100.00;78443.06;5061602;28;20460;-88
2023/01/29 06:14:17;;;;;;;45.40;17.80;;;;;;;-148.88;100.00;78451.19;5058166;28;20027;-87
2023/01/29 06:16:45;;;;;;;45.10;16.60;;;;;;;-148.88;100.00;78447.13;5057295;28;20029;-87
2023/01/29 06:19:19;;;;;;;49.95;18.40;;;;;;;-148.88;100.00;78443.06;5057252;28;20031;-89
2023/01/29 06:21:44;;;;;;;46.65;18.33;;;;;;;-148.88;100.00;78445.09;5055816;28;20468;-85
2023/01/29 06:24:13;;;;;;;44.80;16.80;;;;;;;-148.88;100.00;78449.16;5056758;28;20040;-87
2023/01/29 06:26:39;;;;;;;51.70;18.98;;;;;;;-148.88;100.00;78451.19;5055038;28;20043;-88
2023/01/29 06:29:26;;;;;;;;;;;;;;;;;;;;;
2023/01/29 06:32:11;;;;;;;54.38;18.23;;;;;;;-148.88;100.00;78465.44;5056951;28;20020;-89
2023/01/29 06:34:59;;;;;;;51.50;17.15;;;;;;;-148.88;100.00;78459.31;5054627;28;20033;-87
2023/01/29 06:37:45;;;;;;;52.85;17.48;;;;;;;-148.88;100.00;78447.13;5055419;28;20475;-88
2023/01/29 06:41:07;;;;;;;51.05;18.75;;;;;;;-148.88;100.00;78459.31;5054831;28;20021;-88
2023/01/29 06:43:47;;;;;;;46.42;16.83;;;;;;;-148.88;100.00;78457.28;5054655;28;20052;-89
2023/01/29 06:46:36;;;;;;;54.65;20.02;;;;;;;-148.88;100.00;78451.19;5039262;28;20433;-87
2023/01/29 06:49:22;;;;;;;51.15;19.65;;;;;;;-148.88;100.00;78457.28;5055476;28;20399;-87
2023/01/29 06:52:29;;;;;;;60.95;19.25;;;;;;;-148.88;100.00;78443.06;5054836;28;20032;-88
2023/01/29 06:54:55;;;;;;;57.63;19.63;;;;;;;-148.88;100.00;78453.22;5053975;28;20021;-90
2023/01/29 06:57:52;;;;;;;57.38;19.55;;;;;;;-148.88;100.00;78447.13;5054910;28;20041;-88
2023/01/29 07:03:36;;;;;;;48.25;18.27;;;;;;;-148.88;100.00;78453.22;5032560;28;20112;-87
2023/01/29 07:06:10;;;;;;;55.20;18.63;;;;;;;-148.88;100.00;78455.25;5054700;28;20044;-86
2023/01/29 07:08:39;;;;;;;53.63;19.30;;;;;;;-148.88;100.00;78455.25;5054814;28;20468;-88
2023/01/29 07:11:21;;;;;;;;;;;;;;;;;;;;;
2023/01/29 07:13:56;;;;;;;59.35;19.17;;;;;;;-148.88;100.00;78459.31;5055762;28;20021;-88
2023/01/29 07:16:27;;;;;;;48.30;18.13;;;;;;;-148.88;100.00;78469.50;5054052;28;20017;-88
2023/01/29 07:18:52;;;;;;;62.45;21.40;;;;;;;-148.88;100.00;78461.34;5055279;28;20068;-88
2023/01/29 07:21:18;;;;;;;54.33;20.38;;;;;;;-148.88;100.00;78467.47;5057377;28;20029;-86
2023/01/29 07:23:43;;;;;;;48.90;19.00;;;;;;;-148.88;100.00;78459.31;5056663;28;20064;-86
2023/01/29 07:26:10;;;;;;;48.90;18.80;;;;;;;-148.88;100.00;78451.19;5057618;28;20054;-88
2023/01/29 07:28:36;;;;;;;53.47;20.25;;;;;;;-148.88;100.00;78443.06;5055392;28;20545;-86
2023/01/29 07:31:02;;;;;;;50.63;18.40;;;;;;;-148.88;100.00;78443.06;5056282;28;20036;-86
2023/01/29 07:33:34;;;;;;;57.45;20.13;;;;;;;-148.88;100.00;78443.06;5057538;28;20029;-89
2023/01/29 07:36:00;;;;;;;50.30;18.30;;;;;;;-148.88;100.00;78447.13;5055372;28;20025;-87
2023/01/29 07:38:28;;;;;;;54.72;18.33;;;;;;;-148.88;100.00;78463.38;5055708;28;20032;-87
2023/01/29 07:40:53;;;;;;;62.75;20.90;;;;;;;-148.88;100.00;78469.50;5054777;28;20033;-86
2023/01/29 07:43:19;;;;;;;63.95;21.83;;;;;;;-148.88;100.00;78457.28;5056282;28;20017;-86
2023/01/29 07:45:45;;;;;;;49.10;19.38;;;;;;;-148.88;100.00;78447.13;5053712;28;20037;-88
2023/01/29 07:48:12;;;;;;;54.47;19.98;;;;;;;-148.88;100.00;78434.94;5053571;28;20024;-88
2023/01/29 07:50:37;;;;;;;62.42;21.05;;;;;;;-148.88;100.00;78418.69;5053636;28;20111;-87
2023/01/29 07:53:03;;;;;;;58.30;20.58;;;;;;;-148.88;100.00;78414.59;5054033;28;20132;-87
2023/01/29 07:55:29;;;;;;;47.30;18.45;;;;;;;-148.88;100.00;78404.44;5054262;28;20067;-87
2023/01/29 07:58:00;;;;;;;54.33;19.25;;;;;;;-148.88;100.00;78418.69;5054919;28;20043;-88
2023/01/29 08:00:28;;;;;;;52.58;18.15;;;;;;;-148.88;100.00;78422.75;5055014;28;20035;-88
2023/01/29 08:03:03;;;;;;;69.13;19.90;;;;;;;-148.88;100.00;78428.84;5054471;28;20025;-87
2023/01/29 08:05:29;;;;;;;55.78;18.40;;;;;;;-148.88;100.00;78408.50;5053418;28;20020;-88
2023/01/29 08:07:54;;;;;;;49.22;19.10;;;;;;;-148.88;100.00;78382.09;5053451;28;20116;-88
2023/01/29 08:10:19;;;;;;;55.28;20.33;;;;;;;-148.88;100.00;78392.25;5057110;28;20060;-87
2023/01/29 08:12:45;;;;;;;51.53;19.67;;;;;;;-148.88;100.00;78394.28;5060165;28;20079;-86
2023/01/29 08:15:10;;;;;;;56.47;20.10;;;;;;;-148.88;100.00;78380.06;5058583;28;20021;-87
2023/01/29 08:17:38;;;;;;;56.50;20.77;;;;;;;-148.88;100.00;78369.91;5057000;28;20032;-86
2023/01/29 08:20:05;;;;;;;53.72;17.83;;;;;;;-148.88;100.00;78361.75;5059137;28;20017;-86
2023/01/29 08:22:31;;;;;;;53.83;20.73;;;;;;;-148.88;100.00;78359.72;5056814;28;20029;-86
2023/01/29 08:24:56;;;;;;;51.10;18.50;;;;;;;-148.88;100.00;78367.84;5058875;28;20498;-86
2023/01/29 08:27:21;;;;;;;56.72;19.27;;;;;;;-148.88;100.00;78361.75;5055253;28;20083;-86
2023/01/29 08:29:46;;;;;;;56.58;20.17;;;;;;;-148.88;100.00;78355.66;5058310;28;20021;-86
2023/01/29 08:32:12;;;;;;;52.72;19.30;;;;;;;-148.88;100.00;78353.63;5056522;28;20029;-87
2023/01/29 08:34:37;;;;;;;53.80;19.02;;;;;;;-148.88;100.00;78369.91;5055740;28;20036;-86
2023/01/29 08:37:02;;;;;;;51.67;18.73;;;;;;;-148.88;100.00;78355.66;5056396;28;20025;-85
2023/01/29 08:39:28;;;;;;;51.88;19.65;;;;;;;-148.88;100.00;78361.75;5054663;28;20079;-85
2023/01/29 08:41:53;;;;;;;46.08;17.48;;;;;;;-148.88;100.00;78343.47;5056294;28;20036;-84
2023/01/29 08:44:21;;;;;;;49.38;17.60;;;;;;;-148.88;100.00;78335.34;5057356;28;20332;-87
2023/01/29 08:46:47;;;;;;;51.63;18.48;;;;;;;-148.88;100.00;78349.56;5056282;28;20029;-86
2023/01/29 08:49:12;;;;;;;47.78;18.77;;;;;;;-148.88;100.00;78341.44;5056662;28;20029;-86
2023/01/29 08:51:43;;;;;;;50.22;18.48;;;;;;;-148.88;100.00;78333.31;5056605;28;20468;-84
2023/01/29 08:54:08;;;;;;;59.42;19.08;;;;;;;-148.88;100.00;78329.25;5057411;28;20025;-86
2023/01/29 08:56:33;;;;;;;47.08;18.88;;;;;;;-148.88;100.00;78337.38;5056102;28;20078;-86
2023/01/29 08:58:59;;;;;;;47.25;17.83;;;;;;;-148.88;100.00;78321.13;5055888;28;20029;-87
2023/01/29 09:01:24;;;;;;;49.92;17.65;;;;;;;-148.88;100.00;78325.19;5055906;28;20065;-87
2023/01/29 09:03:51;;;;;;;47.83;16.95;;;;;;;-148.88;100.00;78317.06;5053904;28;20024;-87
2023/01/29 09:06:16;;;;;;;46.92;17.88;;;;;;;-148.88;100.00;78317.06;5055194;28;20074;-87
2023/01/29 09:08:41;;;;;;;47.60;17.23;;;;;;;-148.88;100.00;78323.16;5057318;28;20029;-87
2023/01/29 09:11:07;;;;;;;47.67;17.25;;;;;;;-148.88;100.00;78315.00;5053848;28;20049;-85
2023/01/29 09:13:33;;;;;;;46.58;16.67;;;;;;;-148.88;100.00;78296.72;5053848;28;20021;-85
2023/01/29 09:16:02;;;;;;;48.53;17.55;;;;;;;-148.88;100.00;78315.00;5054504;28;20025;-85
2023/01/29 09:18:29;;;;;;;50.60;18.20;;;;;;;-148.88;100.00;78317.06;5056122;28;20487;-85
2023/01/29 09:20:54;;;;;;;59.05;20.33;;;;;;;-148.88;100.00;78317.06;5056579;28;20021;-86
2023/01/29 09:23:19;;;;;;;51.53;17.45;;;;;;;-148.88;100.00;78308.91;5055891;28;20025;-86
2023/01/29 09:25:45;;;;;;;51.80;18.08;;;;;;;-148.88;100.00;78317.06;5056379;28;20391;-87
2023/01/29 09:28:11;;;;;;;45.75;17.85;;;;;;;-148.88;100.00;78323.16;5056391;28;20050;-86
2023/01/29 09:30:36;;;;;;;47.08;16.20;;;;;;;-148.88;100.00;78312.97;5057298;28;20032;-86
2023/01/29 09:33:06;;;;;;;54.15;19.92;;;;;;;-148.88;100.00;78312.97;5055990;28;20028;-86
2023/01/29 09:35:32;;;;;;;47.50;18.50;;;;;;;-148.88;100.00;78298.75;5054811;28;20043;-86
2023/01/29 09:37:57;;;;;;;50.80;19.08;;;;;;;-148.88;100.00;78296.72;5058124;28;20538;-86
2023/01/29 09:40:25;;;;;;;52.38;18.77;;;;;;;-148.88;100.00;78296.72;5061883;28;20029;-84
2023/01/29 09:43:03;;;;;;;52.65;21.73;;;;;;;-148.88;100.00;78280.47;5060969;28;20029;-85
2023/01/29 09:45:30;;;;;;;55.65;19.33;;;;;;;-148.88;100.00;78272.34;5057478;28;20075;-87
2023/01/29 09:47:59;;;;;;;53.80;19.92;;;;;;;-148.88;100.00;78272.34;5057154;28;20025;-86
2023/01/29 09:50:40;;;;;;;55.33;21.23;;;;;;;-148.88;100.00;78260.13;5057340;28;20036;-86
2023/01/29 09:53:09;;;;;;;45.40;18.45;;;;;;;-148.88;100.00;78268.28;5056981;28;20490;-86
2023/01/29 09:56:03;;;;;;;51.00;19.45;;;;;;;-148.88;100.00;78280.47;5057510;28;20033;-86
2023/01/29 09:58:38;;;;;;;53.65;19.42;;;;;;;-148.88;100.00;78260.13;5054991;28;20044;-86
2023/01/29 10:01:22;;;;;;;53.17;18.20;;;;;;;-148.88;100.00;78241.84;5058025;28;20032;-86
2023/01/29 10:03:58;;;;;;;;;;;;;;;-148.88;100.00;78225.59;5058666;28;20033;-87
2023/01/29 10:06:37;;;;;;;41.70;16.25;;;;;;;-148.88;100.00;78207.28;5059436;28;19932;-86
2023/01/29 10:09:41;;;;;;;48.97;18.05;;;;;;;-148.88;100.00;78199.16;5060136;28;20379;-86
2023/01/29 10:12:38;;;;;;;47.53;16.38;;;;;;;-148.88;100.00;78191.03;5058525;28;20017;-86
2023/01/29 10:15:27;;;;;;;48.10;17.58;;;;;;;-148.88;100.00;78191.03;5058288;28;20487;-86
2023/01/29 10:18:04;;;;;;;47.50;17.35;;;;;;;-148.88;100.00;78193.06;5058367;28;20053;-86
2023/01/29 10:20:53;;;;;;;49.50;17.88;;;;;;;-148.88;100.00;78197.13;5056560;28;20418;-87
2023/01/29 10:23:26;;;;;;;56.70;19.30;;;;;;;-148.88;100.00;78186.97;5057096;28;20033;-87
2023/01/29 10:25:52;;;;;;;49.67;18.17;;;;;;;-148.88;100.00;78195.09;5058207;28;20546;-86
2023/01/29 10:28:27;;;;;;;51.42;19.63;;;;;;;-148.88;100.00;78186.97;5056175;28;20025;-86
2023/01/29 10:31:02;;;;;;;46.60;17.35;;;;;;;-148.88;100.00;78189.00;5057068;28;20059;-87
2023/01/29 10:33:33;;;;;;;47.45;18.15;;;;;;;-148.88;100.00;78184.94;5056834;28;20028;-87
2023/01/29 10:36:02;;;;;;;48.50;17.88;;;;;;;-148.88;100.00;78178.84;5056576;28;20037;-87
2023/01/29 10:38:41;;;;;;;50.13;18.60;;;;;;;-148.88;100.00;78180.88;5056748;28;20407;-86
2023/01/29 10:41:16;;;;;;;44.28;16.60;;;;;;;-148.88;100.00;78184.94;5056565;28;20107;-87
2023/01/29 10:44:03;;;;;;;47.35;17.10;;;;;;;-148.88;100.00;78191.03;5056129;28;20032;-87
2023/01/29 10:46:38;;;;;;;53.85;19.92;;;;;;;-148.88;100.00;78174.78;5058023;28;20059;-87
2023/01/29 10:49:18;;;;;;;45.55;16.60;;;;;;;-148.88;100.00;78178.84;5055756;28;20032;-87
2023/01/29 10:52:04;;;;;;;44.65;17.52;;;;;;;-148.88;100.00;78180.88;5057021;28;20032;-87
2023/01/29 10:54:41;;;;;;;54.78;19.52;;;;;;;-148.88;100.00;78166.66;5056076;28;20043;-87
2023/01/29 10:57:19;;;;;;;50.30;18.55;;;;;;;-148.88;100.00;78150.38;5056291;28;20025;-86
2023/01/29 11:00:11;;;;;;;48.83;20.55;;;;;;;-148.88;100.00;78150.38;5057662;28;20024;-87
2023/01/29 11:02:42;;;;;;;46.40;18.75;;;;;;;-148.88;100.00;78138.19;5057173;28;20120;-87
2023/01/29 11:05:20;;;;;;;47.83;17.25;;;;;;;-148.88;100.00;78130.06;5055936;28;20558;-87
2023/01/29 11:07:47;;;;;;;49.15;17.58;;;;;;;-148.88;100.00;78130.06;5056032;28;20411;-87
2023/01/29 11:10:20;;;;;;;51.88;17.52;;;;;;;-148.88;100.00;78113.81;5055626;28;20395;-86
2023/01/29 11:12:46;;;;;;;39.80;14.80;;;;;;;-148.88;100.00;78111.78;5056921;28;20021;-87
2023/01/29 11:15:26;;;;;;;41.28;16.38;;;;;;;-148.88;100.00;78115.84;5056146;28;20502;-86
2023/01/29 11:18:12;;;;;;;44.92;15.20;;;;;;;-148.88;100.00;78097.53;5055617;28;20087;-87
2023/01/29 11:20:39;;;;;;;45.42;16.17;;;;;;;-148.88;100.00;78097.53;5056200;28;20090;-86
2023/01/29 11:23:04;;;;;;;44.38;15.25;;;;;;;-148.88;100.00;78109.75;5055846;28;20535;-86
2023/01/29 11:25:31;;;;;;;43.15;16.45;;;;;;;-148.88;100.00;78105.69;5056996;28;20040;-87
2023/01/29 11:28:01;;;;;;;50.45;17.63;;;;;;;-148.88;100.00;78085.34;5057267;28;20024;-87
2023/01/29 11:30:32;;;;;;;43.85;14.88;;;;;;;-148.88;100.00;78087.38;5055428;28;20403;-86
2023/01/29 11:33:04;;;;;;;46.78;16.85;;;;;;;-148.88;100.00;78077.22;5055236;28;20483;-86
2023/01/29 11:35:32;;;;;;;40.70;15.95;;;;;;;-148.88;100.00;78069.09;5055967;28;20120;-86
2023/01/29 11:38:25;;;;;;;39.42;14.98;;;;;;;-148.88;100.00;78075.19;5056224;28;20025;-86
2023/01/29 11:40:52;;;;;;;37.90;14.40;;;;;;;-148.88;100.00;78065.03;5055286;28;20098;-86
2023/01/29 11:43:32;;;;;;;40.38;15.70;;;;;;;-148.88;100.00;78067.06;5056211;28;20166;-86
2023/01/29 11:46:04;;;;;;;43.00;17.90;;;;;;;-148.88;100.00;78056.91;5057311;28;20044;-87
2023/01/29 11:48:59;;;;;;;42.83;15.23;;;;;;;-148.88;100.00;78052.84;5056799;28;20051;-87
2023/01/29 11:51:27;;;;;;;41.05;15.23;;;;;;;-148.88;100.00;78044.69;5047637;28;20033;-87
2023/01/29 11:53:56;;;;;;;43.63;16.33;;;;;;;-148.88;100.00;78044.69;5055730;28;20021;-86
2023/01/29 11:56:28;;;;;;;42.35;15.68;;;;;;;-148.88;100.00;78042.66;5057310;28;20021;-87
2023/01/29 11:58:56;;;;;;;36.83;15.05;;;;;;;-148.88;100.00;78040.63;5059111;28;20028;-86
2023/01/29 12:01:35;;;;;;;40.38;15.25;;;;;;;-148.88;100.00;78028.44;5056258;28;20025;-87
2023/01/29 12:04:02;;;;;;;40.83;15.23;;;;;;;-148.88;100.00;78012.19;5054940;28;20422;-88